createdAt,value
2018-12-07T00:00:11.974Z,75.50
2018-12-07T00:02:41.155Z,74.16
2018-12-07T00:05:10.364Z,74.37
2018-12-07T00:07:41.238Z,75.18
2018-12-07T00:10:10.916Z,74.30
2018-12-07T00:12:40.106Z,74.06
2018-12-07T00:15:09.339Z,74.00
2018-12-07T00:17:38.795Z,74.20
2018-12-07T00:20:09.423Z,73.54
2018-12-07T00:22:38.658Z,73.41
2018-12-07T00:25:08.650Z,74.66
2018-12-07T00:27:37.841Z,74.79
2018-12-07T00:30:07.125Z,73.69
2018-12-07T00:32:36.606Z,73.89
2018-12-07T00:35:06.838Z,73.84
2018-12-07T00:37:36.412Z,74.88
2018-12-07T00:40:07.820Z,75.60
2018-12-07T00:42:37.543Z,73.83
2018-12-07T00:45:07.122Z,73.05
2018-12-07T00:47:37.458Z,73.54
2018-12-07T00:50:07.132Z,73.33
2018-12-07T00:52:36.343Z,73.75
2018-12-07T00:55:10.246Z,74.32
2018-12-07T00:57:39.724Z,73.76
2018-12-07T01:00:09.275Z,73.16
2018-12-07T01:02:38.450Z,72.91
2018-12-07T01:05:07.943Z,74.01
2018-12-07T01:07:37.173Z,75.08
2018-12-07T01:10:06.975Z,74.31
2018-12-07T01:12:36.170Z,73.33
2018-12-07T01:15:05.579Z,73.22
2018-12-07T01:17:34.753Z,73.23
2018-12-07T01:20:04.579Z,73.57
2018-12-07T01:22:33.737Z,73.10
2018-12-07T01:25:03.176Z,72.98
2018-12-07T01:27:32.326Z,73.69
2018-12-07T01:30:01.710Z,73.22
2018-12-07T01:32:31.129Z,73.22
2018-12-07T01:35:00.287Z,74.08
2018-12-07T01:37:29.809Z,72.72
2018-12-07T01:39:58.958Z,73.91
2018-12-07T01:42:28.065Z,74.62
2018-12-07T01:44:57.201Z,76.59
2018-12-07T01:47:26.405Z,76.13
2018-12-07T01:49:55.945Z,73.96
2018-12-07T01:52:25.124Z,75.12
2018-12-07T01:54:54.614Z,75.24
2018-12-07T01:57:24.021Z,73.96
2018-12-07T01:59:53.194Z,76.39
2018-12-07T02:02:22.623Z,73.93
2018-12-07T02:04:52.015Z,74.86
2018-12-07T02:07:32.838Z,74.57
2018-12-07T02:10:02.098Z,75.95
2018-12-07T02:12:31.713Z,74.95
2018-12-07T02:15:00.920Z,73.21
2018-12-07T02:17:30.689Z,75.57
2018-12-07T02:20:00.102Z,77.58
2018-12-07T02:22:29.282Z,76.41
2018-12-07T02:24:58.423Z,75.08
2018-12-07T02:27:27.637Z,74.97
2018-12-07T02:29:56.844Z,75.57
2018-12-07T02:32:26.016Z,74.48
2018-12-07T02:34:55.689Z,75.07
2018-12-07T02:37:24.887Z,76.02
2018-12-07T02:39:54.377Z,78.76
2018-12-07T02:42:23.648Z,78.80
2018-12-07T02:44:52.862Z,75.90
2018-12-07T02:47:22.053Z,75.79
2018-12-07T02:49:51.914Z,76.48
2018-12-07T02:52:21.092Z,77.79
2018-12-07T02:54:50.440Z,77.52
2018-12-07T02:57:19.776Z,76.91
2018-12-07T02:59:48.947Z,76.84
2018-12-07T03:02:18.373Z,76.53
2018-12-07T03:04:47.718Z,79.05
2018-12-07T03:07:17.260Z,78.29
2018-12-07T03:09:46.934Z,77.33
2018-12-07T03:12:16.112Z,77.26
2018-12-07T03:14:45.312Z,78.92
2018-12-07T03:17:14.490Z,77.37
2018-12-07T03:19:43.848Z,76.59
2018-12-07T03:22:13.207Z,76.52
2018-12-07T03:24:42.818Z,76.28
2018-12-07T03:27:12.007Z,76.56
2018-12-07T03:29:41.197Z,76.41
2018-12-07T03:32:10.514Z,76.56
2018-12-07T03:34:39.700Z,76.50
2018-12-07T03:37:08.867Z,76.77
2018-12-07T03:39:38.083Z,76.82
2018-12-07T03:42:07.837Z,77.83
2018-12-07T03:44:37.101Z,76.82
2018-12-07T03:47:06.685Z,76.58
2018-12-07T03:49:36.066Z,77.22
2018-12-07T03:52:05.165Z,77.49
2018-12-07T03:54:40.599Z,76.67
2018-12-07T03:57:09.818Z,77.12
2018-12-07T03:59:39.262Z,77.18
2018-12-07T04:02:08.690Z,77.19
2018-12-07T04:04:38.661Z,78.51
2018-12-07T04:07:07.833Z,77.63
2018-12-07T04:09:37.423Z,76.87
2018-12-07T04:12:06.637Z,77.67
2018-12-07T04:14:36.100Z,77.05
2018-12-07T04:17:05.531Z,76.42
2018-12-07T04:19:34.699Z,77.03
2018-12-07T04:22:03.984Z,77.11
2018-12-07T04:24:33.580Z,78.39
2018-12-07T04:27:02.760Z,77.34
2018-12-07T04:29:32.181Z,76.87
2018-12-07T04:32:01.366Z,77.23
2018-12-07T04:34:30.831Z,77.26
2018-12-07T04:36:59.906Z,77.20
2018-12-07T04:39:29.124Z,77.76
2018-12-07T04:41:58.309Z,77.51
2018-12-07T04:44:27.602Z,77.41
2018-12-07T04:46:57.036Z,78.32
2018-12-07T04:49:26.258Z,77.98
2018-12-07T04:51:55.422Z,77.63
2018-12-07T04:54:24.700Z,78.21
2018-12-07T04:56:53.994Z,79.15
2018-12-07T04:59:23.568Z,78.16
2018-12-07T05:01:52.801Z,78.47
2018-12-07T05:04:21.995Z,78.14
2018-12-07T05:06:51.413Z,78.59
2018-12-07T05:09:20.607Z,78.04
2018-12-07T05:11:49.965Z,78.35
2018-12-07T05:14:19.760Z,78.10
2018-12-07T05:16:49.127Z,77.70
2018-12-07T05:19:18.358Z,78.13
2018-12-07T05:21:48.113Z,78.39
2018-12-07T05:24:17.427Z,77.96
2018-12-07T05:26:46.597Z,77.43
2018-12-07T05:29:16.242Z,78.04
2018-12-07T05:31:45.399Z,79.26
2018-12-07T05:34:14.813Z,78.53
2018-12-07T05:36:44.068Z,78.31
2018-12-07T05:39:13.304Z,77.96
2018-12-07T05:41:42.422Z,78.51
2018-12-07T05:44:11.710Z,78.85
2018-12-07T05:46:41.017Z,80.30
2018-12-07T05:49:10.842Z,79.42
2018-12-07T05:51:40.148Z,79.00
2018-12-07T05:54:09.356Z,79.85
2018-12-07T05:56:38.802Z,81.51
2018-12-07T05:59:07.970Z,79.67
2018-12-07T06:01:37.166Z,79.00
2018-12-07T06:04:06.717Z,79.92
2018-12-07T06:06:36.010Z,82.88
2018-12-07T06:09:08.070Z,84.42
2018-12-07T06:11:37.303Z,80.76
2018-12-07T06:14:06.504Z,79.27
2018-12-07T06:16:35.598Z,79.58
2018-12-07T06:19:05.121Z,79.96
2018-12-07T06:21:34.417Z,79.25
2018-12-07T06:24:03.649Z,78.43
2018-12-07T06:26:33.404Z,77.78
2018-12-07T06:29:02.910Z,79.28
2018-12-07T06:31:32.303Z,77.92
2018-12-07T06:34:02.111Z,78.00
2018-12-07T06:36:31.499Z,79.26
2018-12-07T06:39:00.659Z,78.94
2018-12-07T06:41:30.331Z,78.71
2018-12-07T06:43:59.611Z,78.96
2018-12-07T06:46:29.008Z,78.23
2018-12-07T06:49:10.512Z,80.12
2018-12-07T06:51:41.111Z,78.83
2018-12-07T06:54:10.225Z,78.78
2018-12-07T06:56:39.640Z,80.65
2018-12-07T06:59:09.046Z,81.85
2018-12-07T07:01:38.215Z,81.05
2018-12-07T07:04:07.618Z,79.94
2018-12-07T07:06:37.052Z,80.59
2018-12-07T07:09:09.004Z,79.06
2018-12-07T07:11:42.530Z,77.52
2018-12-07T07:14:12.489Z,77.87
2018-12-07T07:16:42.326Z,78.06
2018-12-07T07:19:11.713Z,78.26
2018-12-07T07:21:41.398Z,78.85
2018-12-07T07:24:10.973Z,78.26
2018-12-07T07:26:40.348Z,77.83
2018-12-07T07:29:09.574Z,79.85
2018-12-07T07:31:43.415Z,78.96
2018-12-07T07:34:10.294Z,77.98
2018-12-07T07:36:39.440Z,80.12
2018-12-07T07:39:08.964Z,79.08
2018-12-07T07:41:38.151Z,78.51
2018-12-07T07:44:07.399Z,79.54
2018-12-07T07:46:36.766Z,78.97
2018-12-07T07:49:06.471Z,77.61
2018-12-07T07:51:35.636Z,78.05
2018-12-07T07:54:05.104Z,78.25
2018-12-07T07:56:34.680Z,78.99
2018-12-07T07:59:03.940Z,78.58
2018-12-07T08:01:33.663Z,77.90
2018-12-07T08:04:03.057Z,78.00
2018-12-07T08:09:30.986Z,78.56
2018-12-07T08:12:00.629Z,77.66
2018-12-07T08:17:08.593Z,78.26
2018-12-07T08:19:38.619Z,78.24
2018-12-07T08:22:07.841Z,77.69
2018-12-07T08:24:37.514Z,76.65
2018-12-07T08:27:06.851Z,78.43
2018-12-07T08:29:36.037Z,78.25
2018-12-07T08:32:05.267Z,78.84
2018-12-07T08:34:34.407Z,76.78
2018-12-07T08:37:03.677Z,77.50
2018-12-07T08:39:33.157Z,82.05
2018-12-07T08:42:06.661Z,78.00
2018-12-07T08:44:33.629Z,77.67
2018-12-07T08:47:03.022Z,76.65
2018-12-07T08:49:37.306Z,76.41
2018-12-07T08:52:06.687Z,76.20
2018-12-07T08:54:35.828Z,76.11
2018-12-07T08:57:05.041Z,76.47
2018-12-07T08:59:34.312Z,76.05
2018-12-07T09:02:03.981Z,76.11
2018-12-07T09:04:33.206Z,77.67
2018-12-07T09:07:02.543Z,76.57
2018-12-07T09:09:31.861Z,76.48
2018-12-07T09:12:01.369Z,76.28
2018-12-07T09:14:30.532Z,77.30
2018-12-07T09:16:59.836Z,76.32
2018-12-07T09:19:29.254Z,76.47
2018-12-07T09:21:58.704Z,76.28
2018-12-07T09:24:28.270Z,75.96
2018-12-07T09:26:57.616Z,76.43
2018-12-07T09:29:27.004Z,76.36
2018-12-07T09:31:56.282Z,76.04
2018-12-07T09:34:25.436Z,75.72
2018-12-07T09:36:54.956Z,75.42
2018-12-07T09:39:24.755Z,75.72
2018-12-07T09:41:54.056Z,75.48
2018-12-07T09:44:23.450Z,75.44
2018-12-07T09:46:52.661Z,75.77
2018-12-07T09:49:22.001Z,75.01
2018-12-07T09:51:51.396Z,76.68
2018-12-07T09:54:20.555Z,76.03
2018-12-07T09:56:49.939Z,75.36
2018-12-07T09:59:19.275Z,75.08
2018-12-07T10:01:48.456Z,75.20
2018-12-07T10:04:17.647Z,74.83
2018-12-07T10:06:46.859Z,74.85
2018-12-07T10:09:16.276Z,74.44
2018-12-07T10:11:45.555Z,77.03
2018-12-07T10:14:14.724Z,75.47
2018-12-07T10:16:44.092Z,74.99
2018-12-07T10:19:13.932Z,75.34
2018-12-07T10:21:43.049Z,74.39
2018-12-07T10:24:12.168Z,74.44
2018-12-07T10:26:41.462Z,76.39
2018-12-07T10:29:11.049Z,75.11
2018-12-07T10:31:40.174Z,74.35
2018-12-07T10:34:09.470Z,73.86
2018-12-07T10:36:38.649Z,74.91
2018-12-07T10:39:08.057Z,75.09
2018-12-07T10:41:37.252Z,75.10
2018-12-07T10:44:07.481Z,75.48
2018-12-07T10:46:36.566Z,74.63
2018-12-07T10:49:05.714Z,74.20
2018-12-07T10:51:35.261Z,74.28
2018-12-07T10:54:04.645Z,74.54
2018-12-07T10:56:33.889Z,74.53
2018-12-07T10:59:03.385Z,75.06
2018-12-07T11:01:37.789Z,74.78
2018-12-07T11:04:12.454Z,74.70
2018-12-07T11:06:46.888Z,75.06
2018-12-07T11:09:21.313Z,75.11
2018-12-07T11:11:55.736Z,74.30
2018-12-07T11:14:30.220Z,74.42
2018-12-07T11:18:07.894Z,73.64
2018-12-07T11:20:42.346Z,75.01
2018-12-07T11:23:17.153Z,74.89
2018-12-07T11:25:51.573Z,73.53
2018-12-07T11:30:26.837Z,73.48
2018-12-07T11:33:01.383Z,76.28
2018-12-07T11:35:32.547Z,75.18
2018-12-07T11:38:01.731Z,73.32
2018-12-07T11:40:31.005Z,74.67
2018-12-07T11:43:00.395Z,74.05
2018-12-07T11:45:29.571Z,73.45
2018-12-07T11:47:58.795Z,72.93
2018-12-07T11:50:27.982Z,73.55
2018-12-07T11:52:57.376Z,73.23
2018-12-07T11:55:26.602Z,73.73
2018-12-07T11:57:55.800Z,73.73
2018-12-07T12:00:24.983Z,74.06
2018-12-07T12:02:54.569Z,74.58
2018-12-07T12:05:23.727Z,74.31
2018-12-07T12:07:52.868Z,73.16
2018-12-07T12:10:22.166Z,74.04
2018-12-07T12:12:51.472Z,73.74
2018-12-07T12:15:20.620Z,73.88
2018-12-07T12:17:49.803Z,73.94
2018-12-07T12:20:19.267Z,73.88
2018-12-07T12:22:48.683Z,74.81
2018-12-07T12:25:17.885Z,74.74
2018-12-07T12:27:47.291Z,74.77
2018-12-07T12:30:17.906Z,74.50
2018-12-07T12:32:47.516Z,74.62
2018-12-07T12:35:16.722Z,75.49
2018-12-07T12:37:46.116Z,75.97
2018-12-07T12:40:15.724Z,75.27
2018-12-07T12:42:44.987Z,75.78
2018-12-07T12:45:14.246Z,75.88
2018-12-07T12:47:43.429Z,77.05
2018-12-07T12:50:17.988Z,76.16
2018-12-07T12:52:47.310Z,77.29
2018-12-07T12:55:16.530Z,76.21
2018-12-07T12:57:45.752Z,76.71
2018-12-07T13:00:15.461Z,76.22
2018-12-07T13:05:24.299Z,76.88
2018-12-07T13:07:53.557Z,76.68
2018-12-07T13:10:23.103Z,76.91
2018-12-07T13:12:52.298Z,77.61
2018-12-07T13:15:21.669Z,77.16
2018-12-07T13:17:50.797Z,76.81
2018-12-07T13:20:20.126Z,77.72
2018-12-07T13:22:49.288Z,77.85
2018-12-07T13:25:18.780Z,77.02
2018-12-07T13:27:48.081Z,77.80
2018-12-07T13:30:17.451Z,77.03
2018-12-07T13:32:46.600Z,76.92
2018-12-07T13:35:16.047Z,77.11
2018-12-07T13:37:45.444Z,77.54
2018-12-07T13:40:14.866Z,77.48
2018-12-07T13:42:44.073Z,76.93
2018-12-07T13:45:14.840Z,77.32
2018-12-07T13:47:44.359Z,77.14
2018-12-07T13:50:18.793Z,77.26
2018-12-07T13:52:48.151Z,76.65
2018-12-07T13:55:17.528Z,77.43
2018-12-07T13:57:47.240Z,77.97
2018-12-07T14:00:16.581Z,77.28
2018-12-07T14:02:46.095Z,77.84
2018-12-07T14:05:15.363Z,78.06
2018-12-07T14:07:45.023Z,76.65
2018-12-07T14:10:14.495Z,77.01
2018-12-07T14:12:44.036Z,76.68
2018-12-07T14:15:13.399Z,76.93
2018-12-07T14:17:42.797Z,77.13
2018-12-07T14:20:12.287Z,77.19
2018-12-07T14:22:41.664Z,77.44
2018-12-07T14:25:11.281Z,76.76
2018-12-07T14:27:40.891Z,77.67
2018-12-07T14:30:11.359Z,77.02
2018-12-07T14:32:40.467Z,78.37
2018-12-07T14:35:09.888Z,77.29
2018-12-07T14:37:39.210Z,77.29
2018-12-07T14:40:08.511Z,77.21
2018-12-07T14:42:37.875Z,79.71
2018-12-07T14:45:08.514Z,77.99
2018-12-07T14:47:37.777Z,77.49
2018-12-07T14:50:08.064Z,77.80
2018-12-07T14:52:37.852Z,78.22
2018-12-07T14:55:07.447Z,78.45
2018-12-07T14:57:36.725Z,77.37
2018-12-07T15:00:08.251Z,78.84
2018-12-07T15:02:37.514Z,77.35
2018-12-07T15:05:07.151Z,77.92
2018-12-07T15:07:36.508Z,77.32
2018-12-07T15:10:06.872Z,76.81
2018-12-07T15:12:36.429Z,80.52
2018-12-07T15:15:06.522Z,77.75
2018-12-07T15:17:35.774Z,76.96
2018-12-07T15:20:06.167Z,77.37
2018-12-07T15:22:35.978Z,77.91
2018-12-07T15:25:11.956Z,76.85
2018-12-07T15:27:41.420Z,79.57
2018-12-07T15:30:10.882Z,77.88
2018-12-07T15:32:40.101Z,78.42
2018-12-07T15:35:09.704Z,77.91
2018-12-07T15:37:39.424Z,76.88
2018-12-07T15:40:10.795Z,76.79
2018-12-07T15:42:40.413Z,76.56
2018-12-07T15:45:09.799Z,76.52
2018-12-07T15:47:39.072Z,78.83
2018-12-07T15:50:09.671Z,77.81
2018-12-07T15:52:39.247Z,78.23
2018-12-07T15:55:08.642Z,76.92
2018-12-07T15:57:37.975Z,76.72
2018-12-07T16:00:08.942Z,76.28
2018-12-07T16:02:38.340Z,80.58
2018-12-07T16:05:07.901Z,77.99
2018-12-07T16:07:37.575Z,76.68
2018-12-07T16:10:07.686Z,76.53
2018-12-07T16:12:36.976Z,75.77
2018-12-07T16:15:06.582Z,75.90
2018-12-07T16:17:36.052Z,76.43
2018-12-07T16:20:10.468Z,76.05
2018-12-07T16:22:39.968Z,77.59
2018-12-07T16:25:09.425Z,76.11
2018-12-07T16:27:38.804Z,75.66
2018-12-07T16:30:10.178Z,75.89
2018-12-07T16:32:40.355Z,78.47
2018-12-07T16:35:09.747Z,78.32
2018-12-07T16:37:39.122Z,75.99
2018-12-07T16:40:09.783Z,75.51
2018-12-07T16:42:39.383Z,75.58
2018-12-07T16:45:10.092Z,75.13
2018-12-07T16:47:39.433Z,74.88
2018-12-07T16:50:09.218Z,74.73
2018-12-07T16:52:39.180Z,74.95
2018-12-07T16:55:09.236Z,76.70
2018-12-07T16:57:38.720Z,74.84
2018-12-07T17:00:08.706Z,74.18
2018-12-07T17:02:40.755Z,74.69
2018-12-07T17:05:11.020Z,74.51
2018-12-07T17:07:40.227Z,74.93
2018-12-07T17:10:09.591Z,76.25
2018-12-07T17:12:38.899Z,75.43
2018-12-07T17:15:08.815Z,75.16
2018-12-07T17:17:38.444Z,74.88
2018-12-07T17:20:07.875Z,75.04
2018-12-07T17:22:37.624Z,74.18
2018-12-07T17:25:07.591Z,75.29
2018-12-07T17:27:37.120Z,74.87
2018-12-07T17:30:07.175Z,74.62
2018-12-07T17:32:36.478Z,74.62
2018-12-07T17:35:05.885Z,74.52
2018-12-07T17:37:35.496Z,75.25
2018-12-07T17:40:06.099Z,75.01
2018-12-07T17:42:35.689Z,75.27
2018-12-07T17:45:05.729Z,76.52
2018-12-07T17:47:35.115Z,75.62
2018-12-07T17:50:05.679Z,76.12
2018-12-07T17:52:35.155Z,76.42
2018-12-07T17:55:04.853Z,76.19
2018-12-07T17:57:34.467Z,76.73
2018-12-07T18:00:04.320Z,75.52
2018-12-07T18:02:33.802Z,75.80
2018-12-07T18:05:05.258Z,75.55
2018-12-07T18:07:34.686Z,75.51
2018-12-07T18:10:05.155Z,76.11
2018-12-07T18:12:34.480Z,75.87
2018-12-07T18:15:04.064Z,76.35
2018-12-07T18:17:33.408Z,75.61
2018-12-07T18:20:03.152Z,77.58
2018-12-07T18:22:32.851Z,76.88
2018-12-07T18:25:02.611Z,75.93
2018-12-07T18:27:33.782Z,76.77
2018-12-07T18:30:03.184Z,76.03
2018-12-07T18:32:32.458Z,76.31
2018-12-07T18:35:01.877Z,76.35
2018-12-07T18:37:31.308Z,76.16
2018-12-07T18:40:01.030Z,76.55
2018-12-07T18:42:30.411Z,77.22
2018-12-07T18:45:00.178Z,76.41
2018-12-07T18:47:29.684Z,78.35
2018-12-07T18:49:59.095Z,76.62
2018-12-07T18:52:28.729Z,76.26
2018-12-07T18:54:58.326Z,76.84
2018-12-07T18:57:28.219Z,78.29
2018-12-07T18:59:57.736Z,78.64
2018-12-07T19:02:27.178Z,77.57
2018-12-07T19:04:56.591Z,76.57
2018-12-07T19:07:25.825Z,79.08
2018-12-07T19:09:55.241Z,77.07
2018-12-07T19:12:24.750Z,76.08
2018-12-07T19:14:54.324Z,76.53
2018-12-07T19:17:23.802Z,77.16
2018-12-07T19:19:53.174Z,77.23
2018-12-07T19:22:22.551Z,77.38
2018-12-07T19:24:52.017Z,75.91
2018-12-07T19:27:21.501Z,76.67
2018-12-07T19:29:50.998Z,76.47
2018-12-07T19:32:20.563Z,75.49
2018-12-07T19:34:50.450Z,75.67
2018-12-07T19:37:20.104Z,76.96
2018-12-07T19:39:49.672Z,77.70
2018-12-07T19:42:19.096Z,77.10
2018-12-07T19:44:48.548Z,75.92
2018-12-07T19:47:18.481Z,76.84
2018-12-07T19:49:49.759Z,77.45
2018-12-07T19:52:19.018Z,76.08
2018-12-07T19:54:48.401Z,77.49
2018-12-07T19:57:20.104Z,76.23
2018-12-07T19:59:50.393Z,75.71
2018-12-07T20:02:20.755Z,75.18
2018-12-07T20:04:50.663Z,75.70
2018-12-07T20:07:20.072Z,77.71
2018-12-07T20:09:49.449Z,76.53
2018-12-07T20:12:19.112Z,76.10
2018-12-07T20:14:48.339Z,77.43
2018-12-07T20:17:17.914Z,77.47
2018-12-07T20:19:47.612Z,77.22
2018-12-07T20:22:16.955Z,75.62
2018-12-07T20:24:46.329Z,75.59
2018-12-07T20:27:16.463Z,76.04
2018-12-07T20:29:45.846Z,76.08
2018-12-07T20:32:16.999Z,76.44
2018-12-07T20:34:47.861Z,76.88
2018-12-07T20:37:17.496Z,75.29
2018-12-07T20:39:47.449Z,76.25
2018-12-07T20:42:17.518Z,75.76
2018-12-07T20:44:47.110Z,77.17
2018-12-07T20:47:24.559Z,76.48
2018-12-07T20:49:48.364Z,74.97
2018-12-07T20:52:17.925Z,76.81
2018-12-07T20:54:47.376Z,75.11
2018-12-07T20:57:17.093Z,75.95
2018-12-07T20:59:46.566Z,74.62
2018-12-07T21:02:16.059Z,74.92
2018-12-07T21:04:45.331Z,76.29
2018-12-07T21:09:39.510Z,75.17
2018-12-07T21:12:32.798Z,77.04
2018-12-07T21:15:02.500Z,76.67
2018-12-07T21:17:36.365Z,76.27
2018-12-07T21:20:18.696Z,75.30
2018-12-07T21:22:48.944Z,74.90
2018-12-07T21:25:18.891Z,75.02
2018-12-07T21:27:48.751Z,75.87
2018-12-07T21:31:06.105Z,74.03
2018-12-07T21:33:49.900Z,74.63
2018-12-07T21:36:38.932Z,75.61
2018-12-07T21:39:49.318Z,74.22
2018-12-07T21:42:19.055Z,74.25
2018-12-07T21:44:48.931Z,74.15
2018-12-07T21:47:22.237Z,74.40
2018-12-07T21:49:57.033Z,72.70
2018-12-07T21:52:31.616Z,73.10
2018-12-07T21:55:01.455Z,73.39
2018-12-07T21:57:31.913Z,73.84
2018-12-07T22:00:01.427Z,72.54
2018-12-07T22:02:30.730Z,73.51
2018-12-07T22:05:00.472Z,73.23
2018-12-07T22:07:29.734Z,72.30
2018-12-07T22:09:59.471Z,72.70
2018-12-07T22:12:28.920Z,72.44
2018-12-07T22:14:58.436Z,72.44
2018-12-07T22:17:27.696Z,71.40
2018-12-07T22:19:57.134Z,72.34
2018-12-07T22:22:26.745Z,72.73
2018-12-07T22:24:56.252Z,73.20
2018-12-07T22:27:25.812Z,71.98
2018-12-07T22:29:55.585Z,72.37
2018-12-07T22:32:25.080Z,73.10
2018-12-07T22:34:54.512Z,72.54
2018-12-07T22:37:23.962Z,72.71
2018-12-07T22:39:53.170Z,75.33
2018-12-07T22:42:22.343Z,72.87
2018-12-07T22:44:51.737Z,73.16
2018-12-07T22:47:21.427Z,70.99
2018-12-07T22:49:51.016Z,71.98
2018-12-07T22:52:20.302Z,72.00
2018-12-07T22:54:49.452Z,72.99
2018-12-07T22:57:18.506Z,71.76
2018-12-07T22:59:47.861Z,72.06
2018-12-07T23:02:17.453Z,72.63
2018-12-07T23:07:24.254Z,72.99
2018-12-07T23:09:54.061Z,72.76
2018-12-07T23:12:23.260Z,73.98
2018-12-07T23:14:52.444Z,72.68
2018-12-07T23:17:21.803Z,74.16
2018-12-07T23:19:51.185Z,74.83
2018-12-07T23:22:20.473Z,73.19
2018-12-07T23:24:49.749Z,74.98
2018-12-07T23:27:19.211Z,72.93
2018-12-07T23:29:48.747Z,74.92
2018-12-07T23:32:17.943Z,72.65
2018-12-07T23:34:47.138Z,71.86
2018-12-07T23:37:16.593Z,73.18
2018-12-07T23:39:45.817Z,72.81
2018-12-07T23:42:14.843Z,74.91
2018-12-07T23:44:44.044Z,72.42
2018-12-07T23:47:13.752Z,71.86
2018-12-07T23:49:42.984Z,77.93
2018-12-07T23:52:12.143Z,74.48
2018-12-07T23:54:41.465Z,76.79
2018-12-07T23:57:10.837Z,77.63
2018-12-07T23:59:40.716Z,74.23
